Time;durP1;ratioP1;P1;durP2;ratioP2;P2;SDS_P1;SDS_P2;PMS_P1;PMS_P2;Temp;Humidity;BMP_temperature;BMP_pressure;BME280_temperature;BME280_humidity;BME280_pressure;Samples;Min_cycle;Max_cycle;Signal;HPM_P1;HPM_P2
2022/11/30 00:04:32;;;;;;;;;;;7.10;99.90;;;;;;12325081;28;19934;-37
2022/11/30 00:10:34;;;;;;;;;;;7.20;99.90;;;;;;12328245;28;20406;-36
2022/11/30 00:16:36;;;;;;;;;;;7.10;99.90;;;;;;12327951;28;19976;-36
2022/11/30 00:22:38;;;;;;;;;;;7.10;99.90;;;;;;12338230;28;19930;-36
2022/11/30 00:28:41;;;;;;;;;;;7.10;99.90;;;;;;12336682;28;19927;-37
2022/11/30 00:34:42;;;;;;;;;;;7.00;99.90;;;;;;12337400;28;19926;-37
2022/11/30 00:40:45;;;;;;;;;;;6.90;99.90;;;;;;12334691;28;20056;-37
2022/11/30 00:46:47;;;;;;;;;;;6.90;99.90;;;;;;12331708;28;19941;-36
2022/11/30 00:52:48;;;;;;;;;;;6.90;99.90;;;;;;12336160;28;19930;-37
2022/11/30 00:58:50;;;;;;;;;;;6.90;99.90;;;;;;12334338;28;19930;-37
2022/11/30 01:04:52;;;;;;;;;;;6.90;99.90;;;;;;12324807;28;20370;-36
2022/11/30 01:10:56;;;;;;;;;;;6.80;99.90;;;;;;12322565;28;20267;-36
2022/11/30 01:16:58;;;;;;;;;;;6.90;99.90;;;;;;12328246;28;20409;-37
2022/11/30 01:23:00;;;;;;;;;;;6.80;99.90;;;;;;12326522;28;19926;-36
2022/11/30 01:29:02;;;;;;;;;;;6.80;99.90;;;;;;12328736;28;19926;-36
2022/11/30 01:35:03;;;;;;;;;;;6.80;99.90;;;;;;12337509;28;19933;-37
2022/11/30 01:41:06;;;;;;;;;;;6.80;99.90;;;;;;12341811;28;19930;-37
2022/11/30 01:47:10;;;;;;;;;;;6.80;99.90;;;;;;12344351;28;19934;-37
2022/11/30 01:53:12;;;;;;;;;;;6.80;99.90;;;;;;12346105;28;19989;-36
2022/11/30 01:59:15;;;;;;;;;;;6.80;99.90;;;;;;12346712;28;19926;-37
2022/11/30 02:05:17;;;;;;;;;;;6.80;99.90;;;;;;12349016;28;19926;-37
2022/11/30 02:11:19;;;;;;;;;;;6.80;99.90;;;;;;12339753;28;20456;-37
2022/11/30 02:17:39;;;;;;;;;;;6.80;99.90;;;;;;12328917;28;19930;-37
2022/11/30 02:23:56;;;;;;;;;;;6.70;99.90;;;;;;12345263;28;20386;-36
2022/11/30 02:30:08;;;;;;;;;;;6.80;99.90;;;;;;12340354;28;20488;-36
2022/11/30 02:36:10;;;;;;;;;;;6.70;99.90;;;;;;12347282;28;19926;-37
2022/11/30 02:42:12;;;;;;;;;;;6.70;99.90;;;;;;12345920;28;19926;-37
2022/11/30 02:48:16;;;;;;;;;;;6.70;99.90;;;;;;12343395;28;20274;-36
2022/11/30 02:54:17;;;;;;;;;;;6.70;99.90;;;;;;12338811;28;19937;-37
2022/11/30 03:00:19;;;;;;;;;;;6.60;99.90;;;;;;12342212;28;19929;-37
2022/11/30 03:06:21;;;;;;;;;;;6.70;99.90;;;;;;12345173;28;19930;-36
2022/11/30 03:12:23;;;;;;;;;;;6.60;99.90;;;;;;12342316;28;19937;-37
2022/11/30 03:18:25;;;;;;;;;;;6.60;99.90;;;;;;12339230;28;19938;-36
2022/11/30 03:24:27;;;;;;;;;;;6.60;99.90;;;;;;12340514;28;19930;-37
2022/11/30 03:30:29;;;;;;;;;;;6.70;99.90;;;;;;12345102;28;20021;-36
2022/11/30 03:36:31;;;;;;;;;;;6.70;99.90;;;;;;12335015;28;20064;-37
2022/11/30 03:42:33;;;;;;;;;;;6.70;99.90;;;;;;12336946;28;19926;-37
2022/11/30 03:48:35;;;;;;;;;;;6.60;99.90;;;;;;12341709;28;19985;-37
2022/11/30 03:54:37;;;;;;;;;;;6.60;99.90;;;;;;12354811;28;19930;-36
2022/11/30 04:00:39;;;;;;;;;;;6.60;99.90;;;;;;12346704;28;19926;-37
2022/11/30 04:06:41;;;;;;;;;;;6.50;99.90;;;;;;12346864;28;19926;-37
2022/11/30 04:12:43;;;;;;;;;;;6.60;99.90;;;;;;12344531;28;20382;-36
2022/11/30 04:18:45;;;;;;;;;;;6.50;99.90;;;;;;12335373;28;20399;-36
2022/11/30 04:24:46;;;;;;;;;;;6.50;99.90;;;;;;12345557;28;20016;-37
2022/11/30 04:30:49;;;;;;;;;;;6.50;99.90;;;;;;12335486;28;19938;-37
2022/11/30 04:36:50;;;;;;;;;;;6.50;99.90;;;;;;12340738;28;20452;-37
2022/11/30 04:43:00;;;;;;;;;;;6.50;99.90;;;;;;12333882;28;20282;-36
2022/11/30 04:49:02;;;;;;;;;;;6.50;99.90;;;;;;12326674;28;20002;-36
2022/11/30 04:55:04;;;;;;;;;;;6.50;99.90;;;;;;12330786;28;19926;-37
2022/11/30 05:01:06;;;;;;;;;;;6.50;99.90;;;;;;12336972;28;20240;-36
2022/11/30 05:07:08;;;;;;;;;;;6.40;99.90;;;;;;12336622;28;19991;-36
2022/11/30 05:13:10;;;;;;;;;;;6.50;99.90;;;;;;12327363;28;20337;-36
2022/11/30 05:19:13;;;;;;;;;;;6.40;99.90;;;;;;12339587;28;19926;-37
2022/11/30 05:25:15;;;;;;;;;;;6.40;99.90;;;;;;12337890;28;19926;-36
2022/11/30 05:31:17;;;;;;;;;;;6.30;99.90;;;;;;12340488;28;19933;-36
2022/11/30 05:37:18;;;;;;;;;;;6.30;99.90;;;;;;12341189;28;19926;-36
2022/11/30 05:43:20;;;;;;;;;;;6.40;99.90;;;;;;12336234;28;20305;-36
2022/11/30 05:49:22;;;;;;;;;;;6.40;99.90;;;;;;12334452;28;19926;-37
2022/11/30 05:55:24;;;;;;;;;;;6.30;99.90;;;;;;12338709;28;19930;-36
2022/11/30 06:01:27;;;;;;;;;;;6.30;99.90;;;;;;12338726;28;19929;-37
2022/11/30 06:07:29;;;;;;;;;;;6.30;99.90;;;;;;12342517;28;19934;-36
2022/11/30 06:13:31;;;;;;;;;;;6.30;99.90;;;;;;12333079;28;19968;-36
2022/11/30 06:19:33;;;;;;;;;;;6.30;99.90;;;;;;12333576;28;19930;-37
2022/11/30 06:25:35;;;;;;;;;;;6.30;99.90;;;;;;12339695;28;19963;-36
2022/11/30 06:31:36;;;;;;;;;;;6.30;99.90;;;;;;12348671;28;19930;-36
2022/11/30 06:37:39;;;;;;;;;;;6.20;99.90;;;;;;12350760;28;20393;-36
2022/11/30 06:43:40;;;;;;;;;;;6.10;99.90;;;;;;12344787;28;19930;-37
2022/11/30 06:49:42;;;;;;;;;;;6.20;99.90;;;;;;12347783;28;19926;-36
2022/11/30 06:55:44;;;;;;;;;;;6.20;99.90;;;;;;12347589;28;19926;-36
2022/11/30 07:01:45;;;;;;;;;;;6.10;99.90;;;;;;12339398;28;19927;-36
2022/11/30 07:07:47;;;;;;;;;;;6.20;99.90;;;;;;12345981;28;19933;-37
2022/11/30 07:13:49;;;;;;;;;;;6.10;99.90;;;;;;12338302;28;19930;-36
2022/11/30 07:19:50;;;;;;;;;;;6.20;99.90;;;;;;12345540;28;19976;-36
2022/11/30 07:26:10;;;;;;;;;;;6.10;99.90;;;;;;12342620;28;19934;-36
2022/11/30 07:32:12;;;;;;;;;;;6.10;99.90;;;;;;12344976;28;20289;-36
2022/11/30 07:38:14;;;;;;;;;;;6.10;99.90;;;;;;12343240;28;20036;-36
2022/11/30 07:44:16;;;;;;;;;;;6.10;99.90;;;;;;12337401;28;19980;-36
2022/11/30 07:50:17;;;;;;;;;;;6.10;99.90;;;;;;12344764;28;20432;-36
2022/11/30 07:56:19;;;;;;;;;;;6.10;99.90;;;;;;12340676;28;19930;-36
2022/11/30 08:02:21;;;;;;;;;;;6.10;99.90;;;;;;12344188;28;19926;-37
2022/11/30 08:08:23;;;;;;;;;;;6.10;99.90;;;;;;12336081;28;20428;-36
2022/11/30 08:14:24;;;;;;;;;;;6.10;99.90;;;;;;12342065;28;20073;-37
2022/11/30 08:20:26;;;;;;;;;;;6.10;99.90;;;;;;12341855;28;19937;-36
2022/11/30 08:26:29;;;;;;;;;;;6.10;99.90;;;;;;12339035;28;19930;-36
2022/11/30 08:32:31;;;;;;;;;;;6.00;99.90;;;;;;12344813;28;19942;-36
2022/11/30 08:38:33;;;;;;;;;;;6.10;99.90;;;;;;12346051;28;19927;-36
2022/11/30 08:44:34;;;;;;;;;;;6.10;99.90;;;;;;12344233;28;20073;-37
2022/11/30 08:50:36;;;;;;;;;;;6.10;99.90;;;;;;12341190;28;20325;-36
2022/11/30 08:56:38;;;;;;;;;;;6.20;99.90;;;;;;12343067;28;19926;-36
2022/11/30 09:02:39;;;;;;;;;;;6.20;99.90;;;;;;12339964;28;19934;-37
2022/11/30 09:08:44;;;;;;;;;;;6.20;99.90;;;;;;12345145;28;20202;-36
2022/11/30 09:14:46;;;;;;;;;;;6.30;99.90;;;;;;12336919;28;19930;-37
2022/11/30 09:20:59;;;;;;;;;;;6.30;99.90;;;;;;12342982;28;19930;-37
2022/11/30 09:27:01;;;;;;;;;;;6.30;99.90;;;;;;12342297;28;19926;-38
2022/11/30 09:33:03;;;;;;;;;;;6.30;99.90;;;;;;12339426;28;19949;-37
2022/11/30 09:39:05;;;;;;;;;;;6.30;99.90;;;;;;12342532;28;19941;-37
2022/11/30 09:45:16;;;;;;;;;;;6.30;99.90;;;;;;12340740;28;20301;-37
2022/11/30 09:51:19;;;;;;;;;;;6.30;99.90;;;;;;12343484;28;19926;-36
2022/11/30 09:57:44;;;;;;;;;;;6.20;99.90;;;;;;12349084;28;19926;-37
2022/11/30 10:03:46;;;;;;;;;;;6.10;99.90;;;;;;12333497;28;19933;-36
2022/11/30 10:09:53;;;;;;;;;;;6.10;99.90;;;;;;12352706;28;19926;-38
2022/11/30 10:16:18;;;;;;;;;;;6.10;99.90;;;;;;12347010;28;19934;-38
2022/11/30 10:22:40;;;;;;;;;;;6.20;99.90;;;;;;12350516;28;19930;-39
2022/11/30 10:28:44;;;;;;;;;;;6.30;99.90;;;;;;12333692;28;20405;-38
2022/11/30 10:34:52;;;;;;;;;;;6.30;99.90;;;;;;12348954;28;20061;-38
2022/11/30 10:40:59;;;;;;;;;;;6.20;99.90;;;;;;12347689;28;19965;-39
2022/11/30 10:47:04;;;;;;;;;;;6.30;99.90;;;;;;12349590;28;20294;-39
2022/11/30 10:53:05;;;;;;;;;;;6.30;99.90;;;;;;12341211;28;19926;-38
2022/11/30 10:59:19;;;;;;;;;;;6.30;99.90;;;;;;12338764;28;19937;-38
2022/11/30 11:05:21;;;;;;;;;;;6.20;99.90;;;;;;12339179;28;19933;-38
2022/11/30 11:11:25;;;;;;;;;;;6.20;99.90;;;;;;12337238;28;19930;-38
2022/11/30 11:17:31;;;;;;;;;;;6.30;99.90;;;;;;12345855;28;19941;-38
2022/11/30 11:23:40;;;;;;;;;;;6.20;99.90;;;;;;12346077;28;19930;-38
2022/11/30 11:29:42;;;;;;;;;;;6.20;99.90;;;;;;12345842;28;19941;-36
2022/11/30 11:35:45;;;;;;;;;;;6.20;99.90;;;;;;12347532;28;19940;-36
2022/11/30 11:41:47;;;;;;;;;;;6.20;99.90;;;;;;12344778;28;19926;-37
2022/11/30 11:47:56;;;;;;;;;;;6.20;99.90;;;;;;12347052;28;19930;-37
2022/11/30 11:54:04;;;;;;;;;;;6.20;99.90;;;;;;12323210;28;19933;-36
2022/11/30 12:00:10;;;;;;;;;;;6.20;99.90;;;;;;12342648;28;19926;-36
2022/11/30 12:06:18;;;;;;;;;;;6.10;99.90;;;;;;12303753;28;20344;-36
2022/11/30 12:12:19;;;;;;;;;;;6.20;99.90;;;;;;12344339;28;20001;-36
2022/11/30 12:18:21;;;;;;;;;;;6.10;99.90;;;;;;12341275;28;20025;-36
2022/11/30 12:24:24;;;;;;;;;;;6.20;99.90;;;;;;12340076;28;19926;-36
2022/11/30 12:30:39;;;;;;;;;;;6.10;99.90;;;;;;12343675;28;19926;-37
2022/11/30 12:36:50;;;;;;;;;;;6.10;99.90;;;;;;12342603;28;19930;-36
2022/11/30 12:43:01;;;;;;;;;;;6.10;99.90;;;;;;12336777;28;19972;-37
2022/11/30 12:49:12;;;;;;;;;;;6.10;99.90;;;;;;12345636;28;19926;-37
2022/11/30 12:55:19;;;;;;;;;;;6.10;99.90;;;;;;12329202;28;20405;-37
2022/11/30 13:01:40;;;;;;;;;;;6.10;99.90;;;;;;12325119;28;19926;-37
2022/11/30 13:07:44;;;;;;;;;;;6.00;99.90;;;;;;12333542;28;19930;-37
2022/11/30 13:13:54;;;;;;;;;;;6.00;99.90;;;;;;12339767;28;20297;-36
2022/11/30 13:20:13;;;;;;;;;;;5.90;99.90;;;;;;12332105;28;19927;-36
2022/11/30 13:26:14;;;;;;;;;;;5.90;99.90;;;;;;12339999;28;19930;-36
2022/11/30 13:32:16;;;;;;;;;;;5.90;99.90;;;;;;12340105;28;19934;-36
2022/11/30 13:38:38;;;;;;;;;;;5.80;99.90;;;;;;12342990;28;19942;-36
2022/11/30 13:44:40;;;;;;;;;;;5.80;99.90;;;;;;12348677;28;20718;-37
2022/11/30 13:50:45;;;;;;;;;;;5.90;99.90;;;;;;12341913;28;19937;-37
2022/11/30 13:56:47;;;;;;;;;;;5.80;99.90;;;;;;12349912;28;19934;-36
2022/11/30 14:02:52;;;;;;;;;;;5.80;99.90;;;;;;12350861;28;19930;-37
2022/11/30 14:08:54;;;;;;;;;;;5.80;99.90;;;;;;12342736;28;19930;-36
2022/11/30 14:14:56;;;;;;;;;;;5.80;99.90;;;;;;12342938;28;20395;-36
2022/11/30 14:21:15;;;;;;;;;;;5.80;99.90;;;;;;12343746;28;19926;-37
2022/11/30 14:27:18;;;;;;;;;;;5.80;99.90;;;;;;12340619;28;19930;-36
2022/11/30 14:33:22;;;;;;;;;;;5.70;99.90;;;;;;12344852;28;20279;-37
2022/11/30 14:39:30;;;;;;;;;;;5.70;99.90;;;;;;12345869;28;19926;-37
2022/11/30 14:45:33;;;;;;;;;;;5.80;99.90;;;;;;12346280;28;19937;-36
2022/11/30 14:51:35;;;;;;;;;;;5.80;99.90;;;;;;12346400;28;19926;-37
2022/11/30 14:57:58;;;;;;;;;;;5.80;99.90;;;;;;12351423;28;19933;-37
2022/11/30 15:04:11;;;;;;;;;;;5.80;99.90;;;;;;12340976;28;20305;-37
2022/11/30 15:10:25;;;;;;;;;;;5.80;99.90;;;;;;12344726;28;20293;-37
2022/11/30 15:16:30;;;;;;;;;;;5.70;99.90;;;;;;12343803;28;19930;-37
2022/11/30 15:22:32;;;;;;;;;;;5.60;99.90;;;;;;12346079;28;19934;-36
2022/11/30 15:28:38;;;;;;;;;;;5.60;99.90;;;;;;12344609;28;19933;-36
2022/11/30 15:34:47;;;;;;;;;;;5.60;99.90;;;;;;12345234;28;19934;-36
2022/11/30 15:41:00;;;;;;;;;;;5.60;99.90;;;;;;12340102;28;19932;-36
2022/11/30 15:47:05;;;;;;;;;;;5.60;99.90;;;;;;12341629;28;19930;-37
2022/11/30 15:53:25;;;;;;;;;;;5.60;99.90;;;;;;12339372;28;19964;-37
2022/11/30 15:59:29;;;;;;;;;;;5.60;99.90;;;;;;12348633;28;20384;-36
2022/11/30 16:05:31;;;;;;;;;;;5.60;99.90;;;;;;12347273;28;19934;-37
2022/11/30 16:11:33;;;;;;;;;;;5.60;99.90;;;;;;12346613;28;20302;-37
2022/11/30 16:17:35;;;;;;;;;;;5.60;99.90;;;;;;12343931;28;19925;-36
2022/11/30 16:23:37;;;;;;;;;;;5.60;99.90;;;;;;12343420;28;20302;-37
2022/11/30 16:29:38;;;;;;;;;;;5.60;99.90;;;;;;12338459;28;19926;-36
2022/11/30 16:35:49;;;;;;;;;;;5.50;99.90;;;;;;12343435;28;19930;-37
2022/11/30 16:41:51;;;;;;;;;;;5.60;99.90;;;;;;12342698;28;19949;-36
2022/11/30 16:47:53;;;;;;;;;;;5.60;99.90;;;;;;12343024;28;20301;-37
2022/11/30 16:53:55;;;;;;;;;;;5.60;99.90;;;;;;12344508;28;19930;-37
2022/11/30 16:59:56;;;;;;;;;;;5.60;99.90;;;;;;12338774;28;19926;-36
2022/11/30 17:05:58;;;;;;;;;;;5.60;99.90;;;;;;12342571;28;20024;-37
2022/11/30 17:12:00;;;;;;;;;;;5.60;99.90;;;;;;12330765;28;19942;-36
2022/11/30 17:18:02;;;;;;;;;;;5.50;99.90;;;;;;12344381;28;20271;-37
2022/11/30 17:24:05;;;;;;;;;;;5.50;99.90;;;;;;12341617;28;19933;-37
2022/11/30 17:30:07;;;;;;;;;;;5.50;99.90;;;;;;12338203;28;19925;-37
2022/11/30 17:36:10;;;;;;;;;;;5.50;99.90;;;;;;12298883;28;19976;-36
2022/11/30 17:42:12;;;;;;;;;;;5.60;99.90;;;;;;12345643;28;19933;-36
2022/11/30 17:48:14;;;;;;;;;;;5.50;99.90;;;;;;12337899;28;19934;-36
2022/11/30 17:54:16;;;;;;;;;;;5.60;99.90;;;;;;12343514;28;20409;-36
2022/11/30 18:00:18;;;;;;;;;;;5.50;99.90;;;;;;12349565;28;19926;-37
2022/11/30 18:06:20;;;;;;;;;;;5.50;99.90;;;;;;12347678;28;20349;-37
2022/11/30 18:12:22;;;;;;;;;;;5.50;99.90;;;;;;12351121;28;19934;-37
2022/11/30 18:18:24;;;;;;;;;;;5.40;99.90;;;;;;12346304;28;19953;-36
2022/11/30 18:24:26;;;;;;;;;;;5.50;99.90;;;;;;12351036;28;20438;-36
2022/11/30 18:30:27;;;;;;;;;;;5.50;99.90;;;;;;12350742;28;19926;-36
2022/11/30 18:36:30;;;;;;;;;;;5.50;99.90;;;;;;12351621;28;19930;-36
2022/11/30 18:42:32;;;;;;;;;;;5.40;99.90;;;;;;12346634;28;19927;-36
2022/11/30 18:48:35;;;;;;;;;;;5.50;99.90;;;;;;12351154;28;19926;-37
2022/11/30 18:54:36;;;;;;;;;;;5.40;99.90;;;;;;12349395;28;19926;-36
2022/11/30 19:00:38;;;;;;;;;;;5.40;99.90;;;;;;12344313;28;19926;-37
2022/11/30 19:06:40;;;;;;;;;;;5.40;99.90;;;;;;12348786;28;19934;-37
2022/11/30 19:12:43;;;;;;;;;;;5.40;99.90;;;;;;12351328;28;19937;-36
2022/11/30 19:18:46;;;;;;;;;;;5.40;99.90;;;;;;12345519;28;19970;-36
2022/11/30 19:24:47;;;;;;;;;;;5.50;99.90;;;;;;12349800;28;19930;-36
2022/11/30 19:30:49;;;;;;;;;;;5.40;99.90;;;;;;12347924;28;19929;-36
2022/11/30 19:36:51;;;;;;;;;;;5.50;99.90;;;;;;12349449;28;19936;-37
2022/11/30 19:42:53;;;;;;;;;;;5.50;99.90;;;;;;12341536;28;19926;-36
2022/11/30 19:48:56;;;;;;;;;;;5.50;99.90;;;;;;12349694;28;20425;-36
2022/11/30 19:54:58;;;;;;;;;;;5.40;99.90;;;;;;12347583;28;20081;-36
2022/11/30 20:01:00;;;;;;;;;;;5.50;99.90;;;;;;12343914;28;19961;-36
2022/11/30 20:07:02;;;;;;;;;;;5.50;99.90;;;;;;12349231;28;20278;-36
2022/11/30 20:13:04;;;;;;;;;;;5.40;99.90;;;;;;12348463;28;19952;-36
2022/11/30 20:19:06;;;;;;;;;;;5.50;99.90;;;;;;12344079;28;19933;-36
2022/11/30 20:25:08;;;;;;;;;;;5.40;99.90;;;;;;12342291;28;19926;-37
2022/11/30 20:31:11;;;;;;;;;;;5.50;99.90;;;;;;12298499;28;19926;-37
2022/11/30 20:37:15;;;;;;;;;;;5.40;99.90;;;;;;12296430;28;19931;-36
2022/11/30 20:43:17;;;;;;;;;;;5.40;99.90;;;;;;12298074;28;19930;-36
2022/11/30 20:49:20;;;;;;;;;;;5.40;99.90;;;;;;12298314;28;19927;-36
2022/11/30 20:55:22;;;;;;;;;;;5.30;99.90;;;;;;12291699;28;19935;-36
2022/11/30 21:01:24;;;;;;;;;;;5.30;99.90;;;;;;12279638;29;19927;-37
2022/11/30 21:07:26;;;;;;;;;;;5.30;99.90;;;;;;12299990;29;20401;-36
2022/11/30 21:13:28;;;;;;;;;;;5.30;99.90;;;;;;12295899;28;19977;-37
2022/11/30 21:19:30;;;;;;;;;;;5.30;99.90;;;;;;12312102;28;19937;-37
2022/11/30 21:25:33;;;;;;;;;;;5.30;99.90;;;;;;12297109;28;20337;-37
2022/11/30 21:31:35;;;;;;;;;;;5.20;99.90;;;;;;12297637;28;20362;-36
2022/11/30 21:37:37;;;;;;;;;;;5.30;99.90;;;;;;12292456;28;20271;-37
2022/11/30 21:43:39;;;;;;;;;;;5.30;99.90;;;;;;12288504;28;20371;-36
2022/11/30 21:49:42;;;;;;;;;;;5.30;99.90;;;;;;12296363;29;19931;-36
2022/11/30 21:55:44;;;;;;;;;;;5.30;99.90;;;;;;12303702;28;19926;-36
2022/11/30 22:01:46;;;;;;;;;;;5.20;99.90;;;;;;12305773;28;19926;-36
2022/11/30 22:07:47;;;;;;;;;;;5.20;99.90;;;;;;12303688;28;20790;-36
2022/11/30 22:13:53;;;;;;;;;;;5.20;99.90;;;;;;12304148;28;19977;-36
2022/11/30 22:19:55;;;;;;;;;;;5.20;99.90;;;;;;12304859;28;20391;-38
2022/11/30 22:26:16;;;;;;;;;;;5.10;99.90;;;;;;12299996;28;20375;-37
2022/11/30 22:32:20;;;;;;;;;;;5.20;99.90;;;;;;12351311;28;19934;-36
2022/11/30 22:38:23;;;;;;;;;;;5.20;99.90;;;;;;12341601;28;20301;-36
2022/11/30 22:44:25;;;;;;;;;;;5.20;99.90;;;;;;12351383;28;20029;-36
2022/11/30 22:50:27;;;;;;;;;;;5.20;99.90;;;;;;12351718;28;19926;-36
2022/11/30 22:56:33;;;;;;;;;;;5.10;99.90;;;;;;12345970;28;19926;-36
2022/11/30 23:02:35;;;;;;;;;;;5.20;99.90;;;;;;12351638;28;19927;-37
2022/11/30 23:08:38;;;;;;;;;;;5.10;99.90;;;;;;12351368;28;19926;-36
2022/11/30 23:14:40;;;;;;;;;;;5.20;99.90;;;;;;12346990;28;19933;-36
2022/11/30 23:20:41;;;;;;;;;;;5.20;99.90;;;;;;12321687;28;20025;-36
2022/11/30 23:26:43;;;;;;;;;;;5.20;99.90;;;;;;12350298;28;20417;-36
2022/11/30 23:32:45;;;;;;;;;;;5.20;99.90;;;;;;12321851;28;20003;-36
2022/11/30 23:38:48;;;;;;;;;;;5.10;99.90;;;;;;12348894;28;20390;-36
2022/11/30 23:44:56;;;;;;;;;;;5.10;99.90;;;;;;12345419;28;19930;-36
2022/11/30 23:50:58;;;;;;;;;;;5.10;99.90;;;;;;12328540;28;19976;-36
2022/11/30 23:57:00;;;;;;;;;;;5.10;99.90;;;;;;12344518;28;19934;-37
